Time;durP1;ratioP1;P1;durP2;ratioP2;P2;SDS_P1;SDS_P2;PMS_P1;PMS_P2;Temp;Humidity;BMP_temperature;BMP_pressure;BME280_temperature;BME280_humidity;BME280_pressure;Samples;Min_cycle;Max_cycle;Signal;HPM_P1;HPM_P2
2021/07/17 00:02:24;;;;;;;13.52;6.65;;;;;;;15.25;67.37;101491.69;5074262;28;20038;-76
2021/07/17 00:05:13;;;;;;;12.40;5.85;;;;;;;15.23;67.45;101491.13;5111380;28;20050;-76
2021/07/17 00:07:59;;;;;;;10.95;5.88;;;;;;;15.17;67.61;101495.97;5105872;28;20093;-77
2021/07/17 00:10:47;;;;;;;9.25;5.68;;;;;;;15.16;67.29;101487.91;5100268;28;20036;-77
2021/07/17 00:13:33;;;;;;;11.32;5.18;;;;;;;15.14;67.32;101490.97;5070852;28;20122;-77
2021/07/17 00:16:25;;;;;;;10.18;5.03;;;;;;;15.08;67.35;101499.75;5095610;28;20039;-77
2021/07/17 00:19:11;;;;;;;7.80;4.80;;;;;;;15.04;67.71;101493.91;5081990;28;20036;-77
2021/07/17 00:21:57;;;;;;;8.30;4.88;;;;;;;15.03;67.58;101486.66;5078702;28;20065;-77
2021/07/17 00:24:43;;;;;;;9.90;4.65;;;;;;;14.94;67.67;101492.09;5094455;28;20035;-77
2021/07/17 00:27:28;;;;;;;10.00;4.75;;;;;;;14.89;67.73;101494.94;5078048;28;20045;-76
2021/07/17 00:30:15;;;;;;;8.10;4.10;;;;;;;14.88;67.73;101489.69;5082960;28;20175;-76
2021/07/17 00:33:01;;;;;;;8.10;4.47;;;;;;;14.81;67.67;101486.41;5083381;28;20063;-76
2021/07/17 00:35:46;;;;;;;8.32;4.30;;;;;;;14.75;67.76;101483.66;5068370;28;20790;-76
2021/07/17 00:38:33;;;;;;;7.75;4.20;;;;;;;14.70;68.08;101489.31;5077282;28;20039;-76
2021/07/17 00:41:19;;;;;;;8.25;4.28;;;;;;;14.65;67.93;101488.53;5071930;28;20020;-76
2021/07/17 00:44:06;;;;;;;7.45;4.38;;;;;;;14.67;68.05;101480.69;5073496;28;20039;-76
2021/07/17 00:46:52;;;;;;;6.47;3.95;;;;;;;14.62;68.19;101484.38;5080996;28;20043;-76
2021/07/17 00:49:38;;;;;;;8.80;3.80;;;;;;;14.53;68.17;101480.56;5078921;28;20128;-76
2021/07/17 00:52:23;;;;;;;8.75;3.85;;;;;;;14.50;68.29;101484.75;5075252;28;20477;-76
2021/07/17 00:55:10;;;;;;;8.45;3.80;;;;;;;14.50;68.34;101487.56;5081124;28;20031;-76
2021/07/17 00:57:56;;;;;;;11.13;4.05;;;;;;;14.46;68.14;101488.47;5078936;28;20043;-76
2021/07/17 01:00:42;;;;;;;5.97;3.40;;;;;;;14.39;68.46;101486.00;5078842;28;20019;-76
2021/07/17 01:03:29;;;;;;;8.35;3.95;;;;;;;14.37;68.32;101487.44;5078089;28;20040;-77
2021/07/17 01:06:15;;;;;;;9.45;3.97;;;;;;;14.41;68.33;101482.94;5078015;28;20064;-76
2021/07/17 01:09:00;;;;;;;6.07;3.90;;;;;;;14.35;68.26;101484.94;5063584;28;20028;-76
2021/07/17 01:11:46;;;;;;;6.80;3.80;;;;;;;14.30;68.66;101482.22;5070646;28;20044;-76
2021/07/17 01:14:32;;;;;;;7.32;3.63;;;;;;;14.26;68.52;101484.75;5081107;28;20073;-76
2021/07/17 01:17:18;;;;;;;7.78;4.28;;;;;;;14.22;68.62;101483.69;5073790;28;20039;-76
2021/07/17 01:20:05;;;;;;;7.05;3.75;;;;;;;14.17;68.93;101483.72;5077033;28;20031;-76
2021/07/17 01:22:51;;;;;;;9.50;4.20;;;;;;;14.13;69.41;101488.25;5081077;28;20097;-77
2021/07/17 01:25:37;;;;;;;8.75;4.22;;;;;;;14.06;69.38;101484.94;5062689;28;20032;-76
2021/07/17 01:28:23;;;;;;;7.53;4.00;;;;;;;14.03;69.67;101486.38;5083407;28;20619;-76
2021/07/17 01:31:09;;;;;;;9.30;4.18;;;;;;;14.05;69.52;101483.28;5082726;28;20513;-76
2021/07/17 01:33:54;;;;;;;6.55;3.50;;;;;;;14.05;69.23;101484.13;5080798;28;20122;-76
2021/07/17 01:36:40;;;;;;;9.05;4.00;;;;;;;14.02;69.43;101486.69;5081857;28;20097;-76
2021/07/17 01:39:26;;;;;;;9.40;4.10;;;;;;;13.99;69.42;101488.09;5084797;28;20176;-76
2021/07/17 01:42:12;;;;;;;8.10;4.25;;;;;;;13.95;69.64;101475.81;5095423;28;20364;-76
2021/07/17 01:44:57;;;;;;;9.60;4.28;;;;;;;13.92;69.78;101490.38;5106645;28;20036;-76
2021/07/17 01:47:43;;;;;;;6.55;3.65;;;;;;;13.92;69.38;101493.16;5088854;28;20042;-77
2021/07/17 01:50:30;;;;;;;8.38;4.07;;;;;;;13.86;69.69;101491.56;5082393;28;20051;-76
2021/07/17 01:53:16;;;;;;;11.93;4.28;;;;;;;13.81;69.83;101481.25;5090293;28;20028;-76
2021/07/17 01:56:02;;;;;;;7.65;4.15;;;;;;;13.81;69.88;101492.41;5078626;28;20040;-76
2021/07/17 01:58:49;;;;;;;9.43;4.50;;;;;;;13.76;70.11;101494.41;5080360;28;20514;-76
2021/07/17 02:01:35;;;;;;;8.05;4.40;;;;;;;13.69;70.67;101494.75;5081993;28;20039;-76
2021/07/17 02:04:20;;;;;;;9.48;4.30;;;;;;;13.64;70.94;101492.00;5068175;28;20047;-76
2021/07/17 02:07:06;;;;;;;8.95;4.50;;;;;;;13.61;71.39;101487.00;5069437;28;20127;-76
2021/07/17 02:09:52;;;;;;;10.43;4.15;;;;;;;13.53;71.95;101491.25;5067940;28;20040;-76
2021/07/17 02:12:39;;;;;;;9.20;4.85;;;;;;;13.53;72.13;101496.00;5080624;28;20020;-76
2021/07/17 02:15:25;;;;;;;6.93;4.13;;;;;;;13.47;73.30;101497.16;5070373;28;20036;-76
2021/07/17 02:18:12;;;;;;;11.02;5.40;;;;;;;13.36;74.77;101496.41;5085055;28;20040;-76
2021/07/17 02:21:05;;;;;;;12.77;7.10;;;;;;;13.21;77.82;101493.69;5095839;28;20027;-76
2021/07/17 02:23:50;;;;;;;9.68;4.65;;;;;;;13.34;74.15;101493.06;5083268;28;20399;-75
2021/07/17 02:26:36;;;;;;;10.55;5.20;;;;;;;13.38;74.31;101494.16;5083545;28;20437;-76
2021/07/17 02:29:22;;;;;;;10.73;5.38;;;;;;;13.44;73.28;101490.22;5114373;28;20577;-76
2021/07/17 02:32:08;;;;;;;8.63;4.78;;;;;;;13.47;73.58;101498.00;5096681;28;20032;-76
2021/07/17 02:34:53;;;;;;;9.02;4.63;;;;;;;13.49;72.94;101495.75;5079656;28;20040;-76
2021/07/17 02:37:39;;;;;;;7.65;4.28;;;;;;;13.45;73.39;101500.22;5068721;28;20058;-76
2021/07/17 02:40:25;;;;;;;10.15;4.80;;;;;;;13.47;72.98;101497.16;5086805;28;20031;-76
2021/07/17 02:43:11;;;;;;;6.88;4.13;;;;;;;13.49;72.50;101495.75;5066372;28;20127;-77
2021/07/17 02:45:56;;;;;;;11.65;4.50;;;;;;;13.50;72.33;101497.41;5100780;28;20067;-76
2021/07/17 02:48:42;;;;;;;6.68;4.20;;;;;;;13.51;71.89;101490.72;5071930;28;20066;-76
2021/07/17 02:51:28;;;;;;;9.30;4.43;;;;;;;13.48;72.15;101480.13;5083249;28;20040;-76
2021/07/17 02:54:14;;;;;;;9.00;4.70;;;;;;;13.46;72.21;101493.53;5081884;28;20046;-76
2021/07/17 02:57:00;;;;;;;8.50;4.20;;;;;;;13.40;72.34;101486.34;5086147;28;20502;-76
2021/07/17 02:59:45;;;;;;;8.30;4.63;;;;;;;13.40;72.16;101494.72;5081954;28;20040;-76
2021/07/17 03:02:31;;;;;;;9.32;4.65;;;;;;;13.39;72.03;101487.44;5077644;28;20103;-76
2021/07/17 03:05:17;;;;;;;7.18;4.40;;;;;;;13.36;72.05;101491.66;5101277;28;20101;-76
2021/07/17 03:08:05;;;;;;;11.05;4.38;;;;;;;13.30;72.38;101494.78;5084209;28;20032;-76
2021/07/17 03:10:51;;;;;;;8.20;4.50;;;;;;;13.24;72.45;101485.56;5084932;28;20039;-76
2021/07/17 03:13:36;;;;;;;9.98;5.40;;;;;;;13.25;72.83;101481.66;5093611;28;20044;-77
2021/07/17 03:16:23;;;;;;;6.03;4.57;;;;;;;13.18;73.09;101490.34;5072524;28;20043;-76
2021/07/17 03:19:09;;;;;;;7.72;4.68;;;;;;;13.15;73.02;101485.34;5096637;28;20490;-77
2021/07/17 03:21:55;;;;;;;7.28;4.28;;;;;;;13.15;73.07;101482.56;5095827;28;20027;-77
2021/07/17 03:24:41;;;;;;;9.77;4.40;;;;;;;13.14;73.20;101478.06;5083320;28;20042;-76
2021/07/17 03:27:26;;;;;;;10.27;5.35;;;;;;;13.18;72.99;101479.19;5077404;28;20115;-76
2021/07/17 03:30:13;;;;;;;9.85;5.93;;;;;;;13.14;72.60;101483.66;5081013;28;20044;-76
2021/07/17 03:32:59;;;;;;;10.18;6.28;;;;;;;13.10;72.80;101476.16;5082366;28;20053;-74
2021/07/17 03:35:45;;;;;;;16.20;6.78;;;;;;;13.02;73.02;101473.97;5071503;28;20031;-76
2021/07/17 03:38:30;;;;;;;9.75;6.07;;;;;;;13.01;73.64;101480.66;5084152;28;20035;-76
2021/07/17 03:41:17;;;;;;;10.07;6.13;;;;;;;12.98;73.50;101476.50;5082168;28;20046;-76
2021/07/17 03:44:03;;;;;;;10.43;6.20;;;;;;;12.85;74.35;101469.59;5086252;28;20027;-77
2021/07/17 03:46:49;;;;;;;11.70;6.07;;;;;;;12.87;74.41;101472.09;5082583;28;20043;-76
2021/07/17 03:49:35;;;;;;;9.77;6.30;;;;;;;12.84;74.83;101465.16;5082048;28;20052;-76
2021/07/17 03:52:21;;;;;;;8.65;5.78;;;;;;;12.82;74.88;101474.91;5091734;28;20036;-76
2021/07/17 03:55:09;;;;;;;11.52;6.45;;;;;;;12.82;74.90;101472.13;5082643;28;20095;-76
2021/07/17 03:57:55;;;;;;;11.52;6.05;;;;;;;12.77;75.26;101480.50;5067593;28;20099;-76
2021/07/17 04:00:41;;;;;;;9.77;6.03;;;;;;;12.82;75.15;101474.91;5083146;28;20063;-76
2021/07/17 04:03:27;;;;;;;9.30;5.55;;;;;;;12.79;74.60;101469.88;5091811;28;20031;-76
2021/07/17 04:06:12;;;;;;;13.15;6.15;;;;;;;12.77;74.86;101475.78;5092681;28;20088;-76
2021/07/17 04:08:58;;;;;;;11.32;5.90;;;;;;;12.78;74.88;101471.03;5089168;28;20053;-76
2021/07/17 04:11:44;;;;;;;13.68;6.32;;;;;;;12.71;75.23;101466.59;5093589;28;20034;-76
2021/07/17 04:14:30;;;;;;;9.20;5.47;;;;;;;12.69;76.00;101470.78;5092493;28;20426;-76
2021/07/17 04:17:16;;;;;;;11.18;5.82;;;;;;;12.66;75.60;101471.34;5095718;28;20032;-76
2021/07/17 04:20:01;;;;;;;10.02;5.88;;;;;;;12.67;76.26;101478.59;5090666;28;20032;-77
2021/07/17 04:22:47;;;;;;;12.73;6.03;;;;;;;12.66;76.32;101472.19;5098790;28;20038;-76
2021/07/17 04:25:33;;;;;;;8.48;5.50;;;;;;;12.70;75.54;101470.50;5081906;28;20040;-76
2021/07/17 04:28:19;;;;;;;11.02;5.97;;;;;;;12.71;75.33;101474.97;5095559;28;20398;-76
2021/07/17 04:31:05;;;;;;;9.95;5.63;;;;;;;12.71;75.04;101474.97;5091699;28;20038;-76
2021/07/17 04:33:50;;;;;;;9.70;5.72;;;;;;;12.72;75.06;101476.63;5094881;28;20043;-76
2021/07/17 04:36:36;;;;;;;10.95;5.72;;;;;;;12.69;75.44;101485.53;5090916;28;20050;-76
2021/07/17 04:39:22;;;;;;;10.05;6.45;;;;;;;12.71;75.45;101476.91;5079409;28;20119;-76
2021/07/17 04:42:09;;;;;;;11.32;5.97;;;;;;;12.73;75.32;101489.44;5069266;28;20059;-76
2021/07/17 04:44:54;;;;;;;10.48;6.18;;;;;;;12.78;75.38;101482.16;5079984;28;20073;-76
2021/07/17 04:47:40;;;;;;;9.55;4.75;;;;;;;12.81;75.39;101481.59;5092647;28;20120;-76
2021/07/17 04:50:26;;;;;;;9.70;5.68;;;;;;;12.86;76.02;101473.22;5082579;28;20043;-76
2021/07/17 04:53:12;;;;;;;9.73;5.35;;;;;;;12.94;75.74;101473.44;5080452;28;20047;-76
2021/07/17 04:55:57;;;;;;;9.98;6.07;;;;;;;13.00;76.13;101476.22;5076293;28;20050;-76
2021/07/17 04:58:43;;;;;;;11.52;6.20;;;;;;;13.08;76.44;101476.44;5099591;28;20074;-76
2021/07/17 05:01:29;;;;;;;12.45;6.00;;;;;;;13.14;76.05;101471.66;5084232;28;20066;-76
2021/07/17 05:04:15;;;;;;;10.15;6.45;;;;;;;13.23;77.05;101475.50;5095433;28;20063;-76
2021/07/17 05:07:01;;;;;;;10.90;5.68;;;;;;;13.35;78.60;101476.03;5095826;28;20043;-76
2021/07/17 05:09:46;;;;;;;12.25;6.47;;;;;;;13.44;80.25;101465.09;5077907;28;20610;-76
2021/07/17 05:12:32;;;;;;;11.52;6.88;;;;;;;13.56;81.00;101473.91;5097011;28;20084;-76
2021/07/17 05:15:19;;;;;;;12.30;6.88;;;;;;;13.70;82.05;101470.47;5096902;28;20074;-76
2021/07/17 05:18:05;;;;;;;10.43;6.40;;;;;;;13.83;80.68;101480.97;5110659;28;20035;-76
2021/07/17 05:20:50;;;;;;;7.47;4.88;;;;;;;13.98;75.73;101480.81;5074981;28;20035;-76
2021/07/17 05:23:36;;;;;;;8.75;5.45;;;;;;;14.16;76.38;101482.06;5094433;28;20035;-76
2021/07/17 05:26:22;;;;;;;8.43;5.00;;;;;;;14.33;76.07;101481.59;5109566;28;20086;-76
2021/07/17 05:29:08;;;;;;;11.88;6.13;;;;;;;14.48;77.68;101478.63;5082359;28;20024;-76
2021/07/17 05:31:54;;;;;;;9.57;5.47;;;;;;;14.66;74.67;101476.25;5093984;28;20579;-76
2021/07/17 05:34:40;;;;;;;11.68;5.50;;;;;;;14.83;74.39;101476.59;5096785;28;20066;-76
2021/07/17 05:37:26;;;;;;;8.60;6.22;;;;;;;14.98;76.08;101478.34;5097204;28;20546;-76
2021/07/17 05:40:12;;;;;;;9.60;4.82;;;;;;;15.16;73.61;101471.13;5113956;28;20039;-77
2021/07/17 05:42:58;;;;;;;11.00;5.32;;;;;;;15.34;72.49;101478.66;5095514;28;20043;-77
2021/07/17 05:45:44;;;;;;;8.88;5.60;;;;;;;15.52;72.08;101477.00;5091973;28;20032;-77
2021/07/17 05:48:30;;;;;;;9.25;4.63;;;;;;;15.71;71.28;101476.16;5094783;28;20043;-76
2021/07/17 05:51:15;;;;;;;10.75;5.47;;;;;;;15.90;70.77;101484.53;5084682;28;20048;-77
2021/07/17 05:54:01;;;;;;;11.07;5.40;;;;;;;16.07;70.38;101482.84;5085638;28;20043;-77
2021/07/17 05:56:47;;;;;;;9.60;4.82;;;;;;;16.27;70.37;101483.59;5102683;27;20474;-75
2021/07/17 05:59:33;;;;;;;11.68;5.35;;;;;;;16.46;69.86;101498.34;5091541;28;20395;-78
2021/07/17 06:02:18;;;;;;;12.02;5.00;;;;;;;16.65;69.25;101495.44;5112880;28;20035;-78
2021/07/17 06:05:05;;;;;;;10.63;5.50;;;;;;;16.83;69.50;101501.31;5113240;28;20501;-71
2021/07/17 06:07:51;;;;;;;13.85;6.03;;;;;;;17.02;69.11;101493.63;5100496;28;20110;-76
2021/07/17 06:10:37;;;;;;;9.98;5.85;;;;;;;17.19;69.11;101502.22;5070748;28;20035;-76
2021/07/17 06:13:22;;;;;;;14.95;6.80;;;;;;;17.25;69.95;101502.09;5077621;27;20038;-76
2021/07/17 06:16:08;;;;;;;9.68;5.10;;;;;;;17.50;68.50;101489.44;5101877;28;20492;-76
2021/07/17 06:18:54;;;;;;;13.07;6.30;;;;;;;17.57;68.90;101487.00;5100531;28;20118;-78
2021/07/17 06:21:40;;;;;;;14.70;6.70;;;;;;;17.71;69.82;101481.34;5111426;28;20028;-77
2021/07/17 06:24:26;;;;;;;14.20;6.10;;;;;;;17.76;69.71;101489.66;5079330;28;20086;-78
2021/07/17 06:27:12;;;;;;;15.15;6.95;;;;;;;18.00;69.47;101470.50;5067898;28;20039;-78
2021/07/17 06:29:57;;;;;;;14.65;6.50;;;;;;;18.18;68.03;101479.03;5097604;28;20035;-77
2021/07/17 06:32:43;;;;;;;13.80;7.05;;;;;;;18.24;69.52;101478.56;5094090;28;20036;-77
2021/07/17 06:35:29;;;;;;;12.70;6.50;;;;;;;18.31;69.08;101483.75;5080115;28;20119;-77
2021/07/17 06:38:15;;;;;;;13.13;6.20;;;;;;;18.58;68.35;101479.06;5097722;28;20031;-77
2021/07/17 06:41:02;;;;;;;14.50;6.63;;;;;;;18.63;69.03;101476.94;5112289;28;20036;-77
2021/07/17 06:43:47;;;;;;;13.93;5.50;;;;;;;18.92;68.29;101479.22;5097280;28;20035;-75
2021/07/17 06:46:33;;;;;;;11.35;7.10;;;;;;;18.86;67.95;101477.72;5076304;28;20494;-76
2021/07/17 06:49:22;;;;;;;15.88;7.30;;;;;;;18.91;67.36;101480.34;5092629;28;20400;-77
2021/07/17 06:52:08;;;;;;;14.27;6.57;;;;;;;19.16;67.05;101477.94;5086200;28;20048;-76
2021/07/17 06:54:53;;;;;;;15.57;7.05;;;;;;;19.20;67.64;101476.94;5116218;28;20032;-76
2021/07/17 06:57:40;;;;;;;15.25;7.05;;;;;;;19.35;66.89;101481.25;5071813;28;20123;-76
2021/07/17 07:00:26;;;;;;;14.13;7.00;;;;;;;19.56;66.46;101480.63;5083543;28;20040;-76
2021/07/17 07:03:11;;;;;;;15.10;6.63;;;;;;;19.58;66.13;101479.09;5113525;28;20087;-76
2021/07/17 07:05:58;;;;;;;16.98;6.53;;;;;;;19.68;65.76;101483.63;5112504;28;20058;-76
2021/07/17 07:08:44;;;;;;;17.95;6.80;;;;;;;19.68;66.20;101478.00;5113943;28;20476;-75
2021/07/17 07:11:30;;;;;;;11.00;6.35;;;;;;;19.80;65.25;101475.31;5113667;28;20086;-76
2021/07/17 07:14:16;;;;;;;12.13;5.63;;;;;;;19.94;65.09;101485.59;5114815;28;20114;-72
2021/07/17 07:17:01;;;;;;;13.52;5.80;;;;;;;19.90;64.85;101488.25;5093806;28;20043;-73
2021/07/17 07:19:47;;;;;;;14.25;6.28;;;;;;;19.95;64.90;101487.25;5083576;28;20035;-73
2021/07/17 07:22:33;;;;;;;11.52;5.70;;;;;;;20.07;64.55;101481.75;5068460;28;20031;-73
2021/07/17 07:25:19;;;;;;;13.00;6.05;;;;;;;19.93;63.97;101481.13;5072191;28;20369;-72
2021/07/17 07:28:05;;;;;;;13.88;6.68;;;;;;;20.09;64.26;101483.06;5084087;28;20514;-79
2021/07/17 07:30:51;;;;;;;14.02;5.75;;;;;;;20.37;63.95;101481.84;5071250;28;20063;-77
2021/07/17 07:33:37;;;;;;;12.45;5.63;;;;;;;20.38;63.37;101486.31;5089256;28;20031;-80
2021/07/17 07:36:22;;;;;;;10.80;4.97;;;;;;;20.59;62.58;101492.91;5098255;28;20035;-79
2021/07/17 07:39:08;;;;;;;7.75;4.20;;;;;;;20.83;61.85;101492.28;5095630;28;20071;-79
2021/07/17 07:41:54;;;;;;;10.63;5.53;;;;;;;20.69;61.59;101486.88;5096239;28;20028;-79
2021/07/17 07:44:40;;;;;;;11.52;5.45;;;;;;;20.78;61.47;101491.66;5096414;28;20530;-79
2021/07/17 07:47:26;;;;;;;12.50;5.05;;;;;;;21.08;59.68;101495.31;5112314;28;20559;-79
2021/07/17 07:50:12;;;;;;;11.48;5.18;;;;;;;21.05;60.71;101494.00;5092708;28;20091;-70
2021/07/17 07:52:59;;;;;;;9.45;4.97;;;;;;;21.17;61.01;101494.09;5116267;27;20042;-74
2021/07/17 07:55:45;;;;;;;9.95;5.13;;;;;;;21.24;60.67;101490.72;5111743;28;20039;-77
2021/07/17 07:58:31;;;;;;;14.60;5.40;;;;;;;21.32;60.25;101497.47;5109594;28;20100;-71
2021/07/17 08:01:16;;;;;;;13.07;5.43;;;;;;;21.47;59.73;101488.41;5107704;28;20058;-72
2021/07/17 08:04:02;;;;;;;12.27;5.07;;;;;;;21.51;58.47;101488.56;5099033;28;20035;-71
2021/07/17 08:06:48;;;;;;;8.13;4.15;;;;;;;21.80;58.03;101484.81;5082968;28;20364;-79
2021/07/17 08:09:35;;;;;;;10.93;4.13;;;;;;;21.85;58.15;101476.94;5070132;28;20104;-77
2021/07/17 08:12:20;;;;;;;8.70;4.75;;;;;;;21.90;58.97;101487.22;5099072;28;20651;-76
2021/07/17 08:15:07;;;;;;;9.52;4.30;;;;;;;22.03;58.19;101483.22;5112543;28;20118;-70
2021/07/17 08:17:53;;;;;;;7.22;4.13;;;;;;;22.27;55.87;101481.69;5104862;28;20378;-71
2021/07/17 08:20:40;;;;;;;12.68;4.97;;;;;;;22.20;55.91;101470.94;5111317;28;20055;-71
2021/07/17 08:23:27;;;;;;;10.05;4.03;;;;;;;22.48;55.60;101470.28;5095945;28;20110;-71
2021/07/17 08:26:12;;;;;;;10.00;4.13;;;;;;;22.52;55.32;101466.38;5098297;28;20035;-71
2021/07/17 08:28:58;;;;;;;9.25;3.83;;;;;;;22.71;54.53;101465.81;5073643;28;20035;-71
2021/07/17 08:31:44;;;;;;;8.93;3.50;;;;;;;22.66;53.71;101471.72;5095294;28;20479;-71
2021/07/17 08:34:30;;;;;;;7.32;4.07;;;;;;;22.77;54.06;101472.06;5081673;28;20484;-72
2021/07/17 08:37:16;;;;;;;7.80;3.97;;;;;;;22.70;52.70;101475.47;5093000;28;20040;-79
2021/07/17 08:40:03;;;;;;;9.23;4.05;;;;;;;22.90;52.80;101468.06;5080313;28;20093;-80
2021/07/17 08:42:52;;;;;;;8.95;3.88;;;;;;;22.94;52.45;101465.34;5101252;28;20024;-79
2021/07/17 08:45:38;;;;;;;7.45;3.47;;;;;;;23.19;52.83;101464.16;5095174;28;20028;-80
2021/07/17 08:48:24;;;;;;;10.45;4.43;;;;;;;23.27;53.09;101473.69;5100083;27;20091;-79
2021/07/17 08:51:10;;;;;;;8.88;3.75;;;;;;;23.29;52.20;101473.31;5078297;28;20059;-77
2021/07/17 08:53:56;;;;;;;7.80;3.90;;;;;;;23.21;50.90;101460.97;5090135;28;20039;-79
2021/07/17 08:56:42;;;;;;;9.98;4.10;;;;;;;23.44;51.50;101468.94;5074845;28;20035;-69
2021/07/17 08:59:27;;;;;;;6.72;3.90;;;;;;;23.45;49.90;101470.56;5109702;28;20039;-69
2021/07/17 09:02:13;;;;;;;9.35;3.97;;;;;;;23.51;50.32;101475.63;5088440;28;20625;-69
2021/07/17 09:04:59;;;;;;;7.93;4.03;;;;;;;23.39;50.11;101468.00;5081652;28;20118;-69
2021/07/17 09:07:45;;;;;;;11.07;4.30;;;;;;;23.47;50.17;101468.22;5109599;28;20077;-69
2021/07/17 09:10:35;;;;;;;7.25;3.53;;;;;;;23.60;51.51;101459.31;5097081;28;20028;-69
2021/07/17 09:13:24;;;;;;;10.00;4.30;;;;;;;23.63;51.31;101454.94;5092277;28;20046;-69
2021/07/17 09:16:10;;;;;;;10.27;4.32;;;;;;;23.73;52.70;101457.25;5095700;28;20078;-69
2021/07/17 09:18:56;;;;;;;9.30;3.80;;;;;;;23.72;51.10;101455.63;5095532;28;20032;-69
2021/07/17 09:22:00;;;;;;;6.03;4.20;;;;;;;23.78;49.50;101451.34;5081407;28;20079;-82
2021/07/17 09:25:05;;;;;;;6.65;3.60;;;;;;;23.69;48.65;101453.50;5070912;28;20633;-80
2021/07/17 09:27:50;;;;;;;10.10;4.30;;;;;;;23.82;49.71;101455.13;5085444;28;20112;-71
2021/07/17 09:30:36;;;;;;;10.18;4.40;;;;;;;23.78;49.23;101454.19;5098379;28;20635;-71
2021/07/17 09:33:22;;;;;;;8.90;3.78;;;;;;;23.87;47.99;101451.19;5101193;28;20114;-70
2021/07/17 09:36:09;;;;;;;6.57;3.88;;;;;;;24.01;48.16;101451.56;5102061;28;20138;-69
2021/07/17 09:38:54;;;;;;;8.57;4.40;;;;;;;24.02;48.09;101443.91;5074000;28;20724;-70
2021/07/17 09:41:40;;;;;;;11.40;4.28;;;;;;;23.94;47.43;101442.06;5096036;28;20027;-70
2021/07/17 09:44:27;;;;;;;8.38;4.50;;;;;;;23.98;47.48;101435.28;5078562;28;20032;-70
2021/07/17 09:47:17;;;;;;;8.32;4.50;;;;;;;23.78;47.08;101439.19;5084788;28;20038;-69
2021/07/17 09:50:15;;;;;;;8.32;4.57;;;;;;;23.92;50.99;101442.41;5093051;28;20079;-75
2021/07/17 09:53:01;;;;;;;7.85;4.70;;;;;;;23.91;47.95;101443.59;5080920;28;20047;-74
2021/07/17 09:55:47;;;;;;;13.85;5.30;;;;;;;23.87;47.72;101434.16;5094052;28;20054;-78
2021/07/17 09:58:33;;;;;;;7.25;4.82;;;;;;;23.86;45.13;101438.19;5098531;28;20126;-78
2021/07/17 10:01:29;;;;;;;7.13;4.80;;;;;;;23.81;45.29;101435.59;5066369;28;20077;-78
2021/07/17 10:04:15;;;;;;;9.43;5.57;;;;;;;23.91;45.80;101437.94;5079586;28;20046;-78
2021/07/17 10:07:01;;;;;;;7.38;4.90;;;;;;;23.99;45.07;101436.13;5096341;28;20028;-78
2021/07/17 10:09:50;;;;;;;8.68;5.68;;;;;;;24.08;45.32;101434.75;5080426;28;20035;-77
2021/07/17 10:12:38;;;;;;;10.38;5.47;;;;;;;24.22;45.22;101430.66;5080116;28;20036;-77
2021/07/17 10:15:29;;;;;;;10.35;5.97;;;;;;;24.28;45.14;101426.34;5102024;28;20036;-77
2021/07/17 10:18:24;;;;;;;7.10;5.70;;;;;;;24.35;45.76;101425.69;5099614;28;20042;-77
2021/07/17 10:21:10;;;;;;;11.00;6.18;;;;;;;24.37;45.17;101423.31;5097920;28;20036;-78
2021/07/17 10:23:55;;;;;;;9.13;6.05;;;;;;;24.40;46.18;101422.59;5096763;28;20046;-78
2021/07/17 10:26:42;;;;;;;11.45;6.20;;;;;;;24.46;47.20;101424.84;5085318;28;20159;-78
2021/07/17 10:29:27;;;;;;;10.75;6.68;;;;;;;24.54;46.46;101425.81;5099837;28;20040;-78
2021/07/17 10:32:13;;;;;;;8.50;6.30;;;;;;;24.63;46.06;101426.47;5102896;27;20040;-79
2021/07/17 10:34:59;;;;;;;13.48;6.60;;;;;;;24.62;46.58;101419.13;5078954;28;20047;-73
2021/07/17 10:37:46;;;;;;;10.20;6.45;;;;;;;24.61;45.74;101425.19;5098422;28;20024;-72
2021/07/17 10:40:32;;;;;;;10.23;7.30;;;;;;;24.68;47.12;101426.19;5077540;28;20038;-72
2021/07/17 10:43:18;;;;;;;11.65;6.47;;;;;;;24.78;45.71;101426.81;5098161;28;20023;-72
2021/07/17 10:46:04;;;;;;;10.07;6.53;;;;;;;24.87;45.57;101427.41;5098396;28;20039;-75
2021/07/17 10:48:53;;;;;;;10.10;7.07;;;;;;;24.85;45.09;101427.81;5095994;28;20046;-73
2021/07/17 10:51:41;;;;;;;11.02;7.03;;;;;;;24.85;45.94;101432.66;5081974;27;20100;-75
2021/07/17 10:54:28;;;;;;;10.25;7.30;;;;;;;24.91;45.45;101428.34;5083215;28;20065;-74
2021/07/17 10:57:14;;;;;;;15.48;7.13;;;;;;;25.20;46.17;101427.00;5086077;28;20039;-78
2021/07/17 10:59:59;;;;;;;10.40;7.07;;;;;;;25.17;45.60;101425.72;5090214;28;20046;-71
2021/07/17 11:03:34;;;;;;;10.45;7.13;;;;;;;25.15;44.93;101428.09;5087594;28;20053;-70
2021/07/17 11:06:31;;;;;;;9.88;6.88;;;;;;;25.15;45.92;101427.28;5010816;28;20080;-70
2021/07/17 11:09:30;;;;;;;12.20;7.65;;;;;;;25.19;45.00;101414.81;5004493;28;20120;-70
2021/07/17 11:12:17;;;;;;;11.68;7.10;;;;;;;25.05;44.68;101420.16;5004952;28;20049;-71
2021/07/17 11:15:05;;;;;;;10.10;6.85;;;;;;;25.35;45.52;101414.75;5016836;28;20406;-73
2021/07/17 11:17:52;;;;;;;9.90;6.63;;;;;;;25.50;44.93;101413.03;5032829;28;20060;-70
2021/07/17 11:20:39;;;;;;;10.50;6.85;;;;;;;25.53;45.89;101412.28;5026762;28;20042;-70
2021/07/17 11:23:36;;;;;;;12.27;7.40;;;;;;;25.54;45.90;101413.09;5032772;28;20092;-71
2021/07/17 11:26:23;;;;;;;14.15;7.50;;;;;;;25.58;45.71;101403.44;4991850;28;20120;-70
2021/07/17 11:29:12;;;;;;;8.48;6.82;;;;;;;25.89;46.31;101393.09;5003690;28;20033;-70
2021/07/17 11:32:05;;;;;;;10.32;7.05;;;;;;;25.95;45.64;101413.53;5003049;28;20056;-70
2021/07/17 11:34:51;;;;;;;9.93;6.70;;;;;;;26.22;45.98;101403.06;5015061;28;20037;-70
2021/07/17 11:37:37;;;;;;;12.88;6.97;;;;;;;26.28;46.75;101402.34;5088414;28;20062;-71
2021/07/17 11:40:23;;;;;;;10.02;6.88;;;;;;;26.40;43.52;101406.19;5097017;28;20523;-71
2021/07/17 11:43:09;;;;;;;9.05;6.22;;;;;;;26.51;45.15;101402.34;5077268;28;20044;-71
2021/07/17 11:45:55;;;;;;;9.43;6.18;;;;;;;26.67;43.07;101407.09;5072539;28;20036;-71
2021/07/17 11:48:41;;;;;;;11.68;6.13;;;;;;;26.64;43.83;101405.00;5097031;28;20126;-78
2021/07/17 11:51:27;;;;;;;8.95;6.22;;;;;;;26.53;44.68;101407.66;5080056;28;20100;-80
2021/07/17 11:54:43;;;;;;;10.20;6.07;;;;;;;26.49;45.15;101410.44;5073635;28;20058;-79
2021/07/17 11:57:33;;;;;;;9.95;6.38;;;;;;;26.72;45.57;101406.75;5100674;28;20034;-79
2021/07/17 12:00:20;;;;;;;8.63;6.00;;;;;;;26.82;46.27;101403.22;5073858;28;20475;-79
2021/07/17 12:03:06;;;;;;;8.55;6.07;;;;;;;26.65;44.54;101398.91;5098650;28;20089;-78
2021/07/17 12:05:52;;;;;;;11.27;6.03;;;;;;;26.84;45.49;101395.13;5108642;28;20048;-78
2021/07/17 12:08:37;;;;;;;10.65;6.07;;;;;;;26.84;45.15;101406.53;5095664;28;20069;-78
2021/07/17 12:11:23;;;;;;;10.02;5.65;;;;;;;27.10;45.99;101397.13;5083160;28;20040;-78
2021/07/17 12:14:19;;;;;;;8.65;5.68;;;;;;;27.29;44.36;101396.19;5080660;28;20039;-79
2021/07/17 12:17:05;;;;;;;7.53;5.85;;;;;;;27.25;44.63;101397.38;5094459;28;20044;-79
2021/07/17 12:20:03;;;;;;;7.80;5.88;;;;;;;27.31;43.05;101390.94;5109114;28;20588;-78
2021/07/17 12:23:09;;;;;;;8.15;5.50;;;;;;;27.48;43.73;101388.69;5081923;28;20032;-78
2021/07/17 12:25:59;;;;;;;8.50;5.82;;;;;;;27.56;44.14;101391.22;5096898;28;20036;-78
2021/07/17 12:28:46;;;;;;;8.55;5.70;;;;;;;27.69;42.66;101385.25;5096250;28;20541;-78
2021/07/17 12:31:32;;;;;;;7.50;5.35;;;;;;;27.70;44.19;101376.31;5090900;28;20399;-74
2021/07/17 12:34:18;;;;;;;9.73;5.65;;;;;;;27.94;43.18;101376.97;5064928;28;20047;-73
2021/07/17 12:37:04;;;;;;;7.00;5.50;;;;;;;28.04;44.22;101370.56;5084156;28;20039;-73
2021/07/17 12:40:06;;;;;;;10.82;7.25;;;;;;;28.07;42.29;101370.59;5081685;28;20036;-76
2021/07/17 12:42:51;;;;;;;7.60;5.25;;;;;;;28.19;43.00;101360.91;5108819;28;20169;-74
2021/07/17 12:45:37;;;;;;;10.10;5.82;;;;;;;28.21;42.57;101363.38;5057864;28;20123;-78
2021/07/17 12:48:24;;;;;;;9.27;6.10;;;;;;;28.18;41.88;101356.41;5095283;28;20084;-77
2021/07/17 12:51:14;;;;;;;7.47;5.60;;;;;;;28.12;43.97;101366.56;5075186;28;20055;-77
2021/07/17 12:54:04;;;;;;;7.95;5.72;;;;;;;27.87;44.09;101359.78;5078380;28;20054;-77